Time;durP1;ratioP1;P1;durP2;ratioP2;P2;SDS_P1;SDS_P2;PMS_P1;PMS_P2;Temp;Humidity;BMP_temperature;BMP_pressure;BME280_temperature;BME280_humidity;BME280_pressure;Samples;Min_cycle;Max_cycle;Signal;HPM_P1;HPM_P2
2023/11/16 00:02:01;;;;;;;22.50;9.02;;;6.90;99.90;;;;;;5047179;28;20033;-73
2023/11/16 00:04:27;;;;;;;17.70;7.80;;;6.70;99.90;;;;;;5046783;28;20049;-73
2023/11/16 00:06:53;;;;;;;26.15;10.40;;;6.60;99.90;;;;;;5061068;28;20103;-72
2023/11/16 00:09:19;;;;;;;20.97;8.23;;;6.80;99.90;;;;;;5046864;28;20558;-72
2023/11/16 00:11:44;;;;;;;18.50;8.60;;;6.70;99.90;;;;;;5029276;28;20026;-71
2023/11/16 00:14:10;;;;;;;26.77;9.90;;;6.60;99.90;;;;;;5026701;28;20064;-69
2023/11/16 00:16:37;;;;;;;18.47;10.07;;;6.60;99.90;;;;;;5027085;28;20500;-72
2023/11/16 00:19:05;;;;;;;20.30;9.32;;;6.60;99.90;;;;;;5026834;28;20402;-72
2023/11/16 00:21:31;;;;;;;26.85;9.80;;;6.60;99.90;;;;;;5026187;28;20021;-71
2023/11/16 00:23:57;;;;;;;25.63;10.25;;;6.70;99.90;;;;;;5027042;28;20036;-73
2023/11/16 00:26:22;;;;;;;20.87;10.07;;;6.80;99.90;;;;;;5026630;28;20033;-73
2023/11/16 00:28:50;;;;;;;20.47;9.30;;;6.80;99.90;;;;;;5027030;28;20043;-72
2023/11/16 00:31:16;;;;;;;31.83;11.05;;;6.80;99.90;;;;;;5026394;28;20040;-72
2023/11/16 00:33:45;;;;;;;22.23;9.73;;;6.70;99.90;;;;;;5026440;28;20022;-73
2023/11/16 00:36:11;;;;;;;18.90;10.10;;;6.80;99.90;;;;;;5026117;28;20040;-72
2023/11/16 00:38:38;;;;;;;31.08;10.32;;;6.80;99.90;;;;;;5026037;28;20030;-72
2023/11/16 00:41:07;;;;;;;;;;;6.80;99.90;;;;;;5026529;28;20416;-72
2023/11/16 00:43:35;;;;;;;19.52;9.27;;;6.90;99.90;;;;;;5025833;28;19917;-73
2023/11/16 00:46:08;;;;;;;25.95;10.48;;;6.80;99.90;;;;;;5025046;28;20080;-72
2023/11/16 00:48:35;;;;;;;29.77;9.65;;;6.90;99.90;;;;;;5026122;28;20021;-73
2023/11/16 00:51:01;;;;;;;24.50;8.73;;;6.80;99.90;;;;;;5026402;28;20037;-71
2023/11/16 00:53:27;;;;;;;15.30;7.93;;;6.90;99.90;;;;;;5026837;28;20029;-70
2023/11/16 00:55:53;;;;;;;17.20;7.73;;;7.00;99.90;;;;;;5026439;28;20657;-72
2023/11/16 00:58:21;;;;;;;23.30;10.27;;;7.20;99.90;;;;;;5026350;28;20276;-72
2023/11/16 01:00:51;;;;;;;21.48;10.93;;;7.30;99.90;;;;;;5026195;28;20715;-73
2023/11/16 01:03:20;;;;;;;23.73;10.23;;;7.40;99.90;;;;;;5025312;28;20033;-73
2023/11/16 01:05:45;;;;;;;19.75;8.40;;;7.30;99.90;;;;;;5026080;28;20096;-70
2023/11/16 01:08:11;;;;;;;16.33;8.33;;;7.40;99.90;;;;;;5026383;28;20026;-70
2023/11/16 01:10:43;;;;;;;18.53;8.30;;;7.40;99.90;;;;;;5025923;28;20036;-69
2023/11/16 01:13:09;;;;;;;20.77;9.55;;;7.40;99.90;;;;;;5027236;28;20260;-69
2023/11/16 01:15:38;;;;;;;;;;;7.30;99.90;;;;;;5044742;28;20021;-70
2023/11/16 01:18:10;;;;;;;33.40;13.80;;;7.40;99.90;;;;;;5046303;28;20441;-73
2023/11/16 01:20:36;;;;;;;17.55;9.30;;;7.30;99.90;;;;;;5046169;28;20078;-72
2023/11/16 01:23:10;;;;;;;25.33;10.23;;;7.40;99.90;;;;;;5045902;28;20048;-69
2023/11/16 01:25:40;;;;;;;18.98;9.45;;;7.30;99.90;;;;;;5045060;28;20087;-69
2023/11/16 01:28:10;;;;;;;22.65;9.30;;;7.30;99.90;;;;;;5045216;28;20842;-70
2023/11/16 01:30:36;;;;;;;20.33;9.23;;;7.30;99.90;;;;;;5045149;28;20497;-70
2023/11/16 01:33:05;;;;;;;19.42;10.40;;;7.10;99.90;;;;;;5045147;28;20028;-70
2023/11/16 01:35:31;;;;;;;18.08;9.77;;;7.10;99.90;;;;;;5045436;28;20040;-70
2023/11/16 01:37:57;;;;;;;25.25;10.55;;;7.10;99.90;;;;;;5045416;28;20037;-71
2023/11/16 01:40:27;;;;;;;27.52;10.50;;;6.90;99.90;;;;;;5044951;28;20086;-70
2023/11/16 01:42:56;;;;;;;31.77;10.00;;;6.90;99.90;;;;;;5045221;28;20090;-72
2023/11/16 01:45:30;;;;;;;26.83;9.90;;;6.90;99.90;;;;;;5045672;28;20036;-69
2023/11/16 01:48:01;;;;;;;22.35;10.43;;;6.90;99.90;;;;;;5036443;28;20164;-70
2023/11/16 01:50:32;;;;;;;28.48;10.43;;;6.90;99.90;;;;;;5025556;28;20033;-70
2023/11/16 01:53:06;;;;;;;23.25;10.27;;;6.80;99.90;;;;;;5028330;28;20041;-69
2023/11/16 01:55:36;;;;;;;27.35;10.60;;;6.70;99.90;;;;;;5045423;28;20029;-69
2023/11/16 01:58:05;;;;;;;21.60;9.35;;;6.80;99.90;;;;;;5049326;28;20180;-69
2023/11/16 02:00:42;;;;;;;22.25;9.73;;;6.90;99.90;;;;;;5051803;28;20404;-70
2023/11/16 02:03:08;;;;;;;;;;;6.90;99.90;;;;;;5051720;28;20029;-70
2023/11/16 02:05:35;;;;;;;27.08;10.05;;;6.80;99.90;;;;;;5051604;28;19920;-72
2023/11/16 02:08:09;;;;;;;19.88;8.80;;;6.70;99.90;;;;;;5051480;28;20021;-71
2023/11/16 02:10:39;;;;;;;19.17;8.90;;;6.70;99.90;;;;;;5051550;28;20021;-70
2023/11/16 02:13:20;;;;;;;18.48;9.10;;;6.70;99.90;;;;;;5050837;28;20069;-71
2023/11/16 02:15:46;;;;;;;18.08;8.70;;;6.70;99.90;;;;;;5051175;28;20524;-69
2023/11/16 02:18:14;;;;;;;29.20;10.10;;;6.70;99.90;;;;;;5050449;28;20090;-71
2023/11/16 02:20:40;;;;;;;21.13;9.88;;;6.80;99.90;;;;;;5041302;28;20029;-70
2023/11/16 02:23:06;;;;;;;18.50;9.18;;;6.80;99.90;;;;;;5031545;28;20163;-69
2023/11/16 02:25:45;;;;;;;16.83;8.88;;;6.80;99.90;;;;;;5031583;28;20037;-69
2023/11/16 02:28:12;;;;;;;18.98;9.38;;;6.80;99.90;;;;;;5031906;28;20100;-70
2023/11/16 02:30:37;;;;;;;18.02;9.10;;;6.80;99.90;;;;;;5032119;28;20025;-69
2023/11/16 02:33:06;;;;;;;18.73;9.50;;;6.80;99.90;;;;;;5032338;28;20038;-72
2023/11/16 02:35:33;;;;;;;27.02;8.82;;;6.70;99.90;;;;;;5031618;28;20041;-70
2023/11/16 02:37:59;;;;;;;30.13;9.55;;;6.80;99.90;;;;;;5031599;28;20021;-73
2023/11/16 02:40:25;;;;;;;;;;;6.80;99.90;;;;;;5032230;28;20036;-72
2023/11/16 02:42:52;;;;;;;15.43;9.43;;;6.80;99.90;;;;;;5035669;28;19909;-72
2023/11/16 02:45:26;;;;;;;18.20;9.63;;;6.80;99.90;;;;;;5051249;28;20037;-73
2023/11/16 02:47:52;;;;;;;14.23;8.00;;;6.70;99.90;;;;;;5051134;28;20040;-73
2023/11/16 02:50:22;;;;;;;17.80;9.18;;;6.80;99.90;;;;;;5051195;28;20108;-72
2023/11/16 02:52:50;;;;;;;20.95;8.70;;;6.90;99.90;;;;;;5050701;28;20068;-72
2023/11/16 02:55:17;;;;;;;24.08;9.40;;;6.90;99.90;;;;;;5051652;28;20519;-72
2023/11/16 02:57:42;;;;;;;21.65;8.77;;;6.80;99.90;;;;;;5051791;28;20031;-73
2023/11/16 03:00:12;;;;;;;20.77;8.70;;;6.70;99.90;;;;;;5052486;28;20108;-72
2023/11/16 03:02:41;;;;;;;19.85;8.10;;;6.70;99.90;;;;;;5052192;28;20029;-70
2023/11/16 03:05:10;;;;;;;18.48;8.98;;;6.80;99.90;;;;;;5052235;28;20048;-69
2023/11/16 03:07:37;;;;;;;17.38;8.80;;;6.70;99.90;;;;;;5048454;28;20114;-69
2023/11/16 03:10:04;;;;;;;21.65;8.48;;;6.70;99.90;;;;;;5047564;28;20112;-69
2023/11/16 03:12:30;;;;;;;20.10;7.38;;;6.70;99.90;;;;;;5048347;28;20021;-68
2023/11/16 03:14:56;;;;;;;19.17;8.90;;;6.60;99.90;;;;;;5048230;28;20037;-68
2023/11/16 03:17:23;;;;;;;24.33;8.40;;;6.50;99.90;;;;;;5048165;28;20033;-69
2023/11/16 03:19:49;;;;;;;16.73;7.90;;;6.50;99.90;;;;;;5048436;28;20075;-70
2023/11/16 03:22:14;;;;;;;17.30;7.03;;;6.50;99.90;;;;;;5048468;28;20488;-71
2023/11/16 03:24:40;;;;;;;18.07;6.83;;;6.50;99.90;;;;;;5048072;28;20060;-70
2023/11/16 03:27:06;;;;;;;18.35;8.60;;;6.50;99.90;;;;;;5047824;28;20562;-69
2023/11/16 03:29:34;;;;;;;16.50;6.82;;;6.60;99.90;;;;;;5047536;28;20566;-70
2023/11/16 03:31:59;;;;;;;15.07;6.90;;;6.70;99.90;;;;;;5047624;28;20060;-69
2023/11/16 03:34:25;;;;;;;16.65;6.68;;;6.60;99.90;;;;;;5047773;28;20127;-69
2023/11/16 03:36:51;;;;;;;16.50;6.53;;;6.60;99.90;;;;;;5047309;28;20072;-70
2023/11/16 03:39:17;;;;;;;17.43;6.30;;;6.70;99.90;;;;;;5047408;28;20060;-70
2023/11/16 03:41:43;;;;;;;19.50;7.45;;;6.70;99.90;;;;;;5047551;28;20078;-70
2023/11/16 03:44:08;;;;;;;21.55;7.13;;;6.60;99.90;;;;;;5047317;28;20052;-69
2023/11/16 03:46:34;;;;;;;14.73;7.00;;;6.60;99.90;;;;;;5047827;28;20080;-69
2023/11/16 03:48:59;;;;;;;16.50;7.70;;;6.60;99.90;;;;;;5047426;28;20534;-69
2023/11/16 03:51:29;;;;;;;16.20;6.90;;;6.60;99.90;;;;;;5033622;28;20148;-71
2023/11/16 03:53:56;;;;;;;11.18;6.50;;;6.60;99.90;;;;;;5028286;28;20029;-70
2023/11/16 03:56:22;;;;;;;12.18;6.40;;;6.70;99.90;;;;;;5027871;28;20037;-70
2023/11/16 03:58:48;;;;;;;16.75;7.93;;;6.60;99.90;;;;;;5027120;28;20041;-68
2023/11/16 04:01:14;;;;;;;15.43;6.87;;;6.60;99.90;;;;;;5027708;28;20042;-68
2023/11/16 04:03:39;;;;;;;17.07;6.83;;;6.50;99.90;;;;;;5027026;28;20045;-69
2023/11/16 04:06:06;;;;;;;16.40;6.80;;;6.60;99.90;;;;;;5026976;28;20034;-69
2023/11/16 04:08:32;;;;;;;18.25;6.85;;;6.50;99.90;;;;;;5027189;28;20033;-72
2023/11/16 04:10:58;;;;;;;17.55;7.45;;;6.40;99.90;;;;;;5027084;28;20032;-72
2023/11/16 04:13:23;;;;;;;17.52;6.50;;;6.40;99.90;;;;;;5026527;28;20033;-70
2023/11/16 04:15:52;;;;;;;18.58;6.95;;;6.50;99.90;;;;;;5026620;28;20394;-72
2023/11/16 04:18:19;;;;;;;21.85;6.28;;;6.40;99.90;;;;;;5026974;28;20037;-72
2023/11/16 04:20:44;;;;;;;16.05;6.03;;;6.50;99.90;;;;;;5026798;28;20025;-70
2023/11/16 04:23:10;;;;;;;18.15;6.53;;;6.50;99.90;;;;;;5027194;28;20087;-71
2023/11/16 04:25:36;;;;;;;23.05;6.95;;;6.40;99.90;;;;;;5029425;28;20087;-71
2023/11/16 04:28:05;;;;;;;12.03;5.90;;;6.50;99.90;;;;;;5026618;28;20072;-71
2023/11/16 04:30:31;;;;;;;21.08;6.22;;;6.50;99.90;;;;;;5026753;28;20037;-71
2023/11/16 04:33:00;;;;;;;11.30;5.80;;;6.60;99.90;;;;;;5026875;28;20497;-72
2023/11/16 04:35:26;;;;;;;17.77;5.40;;;6.70;99.90;;;;;;5026844;28;20038;-71
2023/11/16 04:37:54;;;;;;;15.55;6.57;;;6.80;99.90;;;;;;5027144;28;20034;-68
2023/11/16 04:40:19;;;;;;;8.20;4.97;;;6.90;99.90;;;;;;5026904;28;20114;-72
2023/11/16 04:42:47;;;;;;;14.55;5.88;;;6.80;99.90;;;;;;5026584;28;20870;-69
2023/11/16 04:45:14;;;;;;;16.05;5.20;;;6.90;99.90;;;;;;5026416;28;20103;-70
2023/11/16 04:47:45;;;;;;;13.43;5.25;;;6.90;99.90;;;;;;5026020;28;20021;-71
2023/11/16 04:50:16;;;;;;;15.43;5.22;;;6.90;99.90;;;;;;5025637;28;20140;-69
2023/11/16 04:52:42;;;;;;;11.23;5.43;;;6.90;99.90;;;;;;5025993;28;20037;-68
2023/11/16 04:55:08;;;;;;;9.77;4.35;;;6.90;99.90;;;;;;5026062;28;20026;-70
2023/11/16 04:57:34;;;;;;;14.07;4.90;;;6.90;99.90;;;;;;5026291;28;20036;-69
2023/11/16 05:00:00;;;;;;;14.77;4.68;;;6.90;99.90;;;;;;5028198;28;20033;-68
2023/11/16 05:02:26;;;;;;;14.93;4.63;;;7.00;99.90;;;;;;5025970;28;20037;-71
2023/11/16 05:04:53;;;;;;;16.75;4.70;;;6.90;99.90;;;;;;5026105;28;20286;-71
2023/11/16 05:07:19;;;;;;;18.17;5.57;;;6.90;99.90;;;;;;5026038;28;20581;-68
2023/11/16 05:09:45;;;;;;;10.90;4.70;;;6.80;99.90;;;;;;5025802;28;20026;-70
2023/11/16 05:12:11;;;;;;;13.32;4.80;;;6.90;99.90;;;;;;5025913;28;20108;-69
2023/11/16 05:14:37;;;;;;;10.43;4.40;;;6.80;99.90;;;;;;5026307;28;20052;-69
2023/11/16 05:17:03;;;;;;;17.52;5.25;;;7.00;99.90;;;;;;5025549;28;20033;-71
2023/11/16 05:19:29;;;;;;;10.82;4.55;;;7.00;99.90;;;;;;5025811;28;20029;-69
2023/11/16 05:21:55;;;;;;;9.35;4.38;;;7.10;99.90;;;;;;5025196;28;20497;-68
2023/11/16 05:24:21;;;;;;;15.02;4.53;;;7.10;99.90;;;;;;5025385;28;20038;-69
2023/11/16 05:26:46;;;;;;;18.73;4.17;;;7.10;99.90;;;;;;5025515;28;20037;-69
2023/11/16 05:29:12;;;;;;;10.40;3.90;;;7.00;99.90;;;;;;5025243;28;20547;-72
2023/11/16 05:31:37;;;;;;;11.87;4.80;;;7.00;99.90;;;;;;5025310;28;20033;-71
2023/11/16 05:34:06;;;;;;;15.15;4.22;;;7.10;99.90;;;;;;5025635;28;20053;-69
2023/11/16 05:36:32;;;;;;;10.02;3.95;;;7.00;99.90;;;;;;5025370;28;20029;-70
2023/11/16 05:38:58;;;;;;;8.77;4.35;;;7.00;99.90;;;;;;5024994;28;20025;-69
2023/11/16 05:41:23;;;;;;;10.50;4.40;;;7.10;99.90;;;;;;5025089;28;20413;-69
2023/11/16 05:43:49;;;;;;;14.15;5.45;;;7.10;99.90;;;;;;5034133;28;20040;-68
2023/11/16 05:46:15;;;;;;;12.52;4.70;;;7.20;99.90;;;;;;5045260;28;20060;-70
2023/11/16 05:48:41;;;;;;;17.58;5.25;;;7.20;99.90;;;;;;5045189;28;20060;-71
2023/11/16 05:51:06;;;;;;;16.57;4.67;;;7.20;99.90;;;;;;5045716;28;20040;-72
2023/11/16 05:53:33;;;;;;;14.90;4.50;;;7.20;99.90;;;;;;5045669;28;20663;-72
2023/11/16 05:55:59;;;;;;;9.30;4.95;;;7.20;99.90;;;;;;5045931;28;20116;-71
2023/11/16 05:58:25;;;;;;;13.50;4.68;;;7.30;99.90;;;;;;5045687;28;20294;-72
2023/11/16 06:00:52;;;;;;;10.50;4.57;;;7.30;99.90;;;;;;5045343;28;20037;-72
2023/11/16 06:03:25;;;;;;;14.13;5.38;;;7.30;99.90;;;;;;5044966;28;20087;-72
2023/11/16 06:05:51;;;;;;;16.70;5.88;;;7.40;99.90;;;;;;5044882;28;20043;-70
2023/11/16 06:08:17;;;;;;;14.50;4.18;;;7.40;99.90;;;;;;5059834;28;20682;-70
2023/11/16 06:10:43;;;;;;;10.90;4.43;;;7.30;99.90;;;;;;5044953;28;20029;-72
2023/11/16 06:13:10;;;;;;;10.07;4.35;;;7.20;99.90;;;;;;5045309;28;20025;-70
2023/11/16 06:15:35;;;;;;;15.23;5.10;;;7.30;99.90;;;;;;5044482;28;20071;-70
2023/11/16 06:18:02;;;;;;;13.40;5.17;;;7.30;99.90;;;;;;5045611;28;20021;-68
2023/11/16 06:20:28;;;;;;;11.50;4.90;;;7.30;99.90;;;;;;5046112;28;20694;-72
2023/11/16 06:22:54;;;;;;;18.00;4.82;;;7.40;99.90;;;;;;5046099;28;20519;-72
2023/11/16 06:25:20;;;;;;;14.70;5.67;;;7.50;99.90;;;;;;5042026;28;20041;-72
2023/11/16 06:27:46;;;;;;;15.40;6.13;;;7.50;99.90;;;;;;5045088;28;20021;-72
2023/11/16 06:30:13;;;;;;;14.88;5.43;;;7.50;99.90;;;;;;5044959;28;20033;-72
2023/11/16 06:32:39;;;;;;;16.90;5.50;;;7.50;99.90;;;;;;5044531;28;20032;-72
2023/11/16 06:35:04;;;;;;;10.93;4.90;;;7.50;99.90;;;;;;5045014;28;20032;-72
2023/11/16 06:37:31;;;;;;;12.57;5.80;;;7.50;99.90;;;;;;5044639;28;20048;-73
2023/11/16 06:39:57;;;;;;;16.63;6.18;;;7.50;99.90;;;;;;5045136;28;20278;-72
2023/11/16 06:42:23;;;;;;;17.90;5.55;;;7.60;99.90;;;;;;5059617;28;20021;-71
2023/11/16 06:44:49;;;;;;;16.10;5.77;;;7.60;99.90;;;;;;5045481;28;20045;-72
2023/11/16 06:47:17;;;;;;;17.27;5.70;;;7.50;99.90;;;;;;5048336;28;20473;-70
2023/11/16 06:49:47;;;;;;;13.27;5.13;;;7.50;99.90;;;;;;5048503;28;20035;-70
2023/11/16 06:52:19;;;;;;;18.02;5.35;;;7.60;99.90;;;;;;5048687;28;20099;-68
2023/11/16 06:54:45;;;;;;;29.00;7.78;;;7.70;99.90;;;;;;5048534;28;20058;-68
2023/11/16 06:57:13;;;;;;;11.68;5.18;;;7.70;99.90;;;;;;5048604;28;20676;-69
2023/11/16 06:59:42;;;;;;;15.40;6.55;;;7.70;99.90;;;;;;5047614;28;20112;-68
2023/11/16 07:02:08;;;;;;;23.05;6.10;;;7.60;99.90;;;;;;5048695;28;20061;-67
2023/11/16 07:04:36;;;;;;;13.32;5.70;;;7.50;99.90;;;;;;5048713;28;20520;-68
2023/11/16 07:07:04;;;;;;;16.60;5.55;;;7.50;99.90;;;;;;5044039;28;20036;-70
2023/11/16 07:09:31;;;;;;;21.17;6.70;;;7.50;99.90;;;;;;5042947;28;20033;-69
2023/11/16 07:11:57;;;;;;;14.55;5.95;;;7.40;99.90;;;;;;5038325;28;20107;-72
2023/11/16 07:14:23;;;;;;;;;;;7.50;99.90;;;;;;5045133;28;20640;-69
2023/11/16 07:16:50;;;;;;;20.90;7.10;;;7.50;99.90;;;;;;5037783;28;20007;-69
2023/11/16 07:19:16;;;;;;;16.02;7.07;;;7.50;99.90;;;;;;5045415;28;20029;-70
2023/11/16 07:21:42;;;;;;;29.47;7.33;;;7.60;99.90;;;;;;5042191;28;20017;-69
2023/11/16 07:24:10;;;;;;;17.23;7.40;;;7.60;99.90;;;;;;5042931;28;20299;-69
2023/11/16 07:26:36;;;;;;;17.65;7.38;;;7.80;99.90;;;;;;5040991;28;20332;-70
2023/11/16 07:29:01;;;;;;;15.70;7.35;;;7.70;99.90;;;;;;5041770;28;20671;-69
2023/11/16 07:31:28;;;;;;;16.77;7.37;;;7.70;99.90;;;;;;5041414;28;20029;-71
2023/11/16 07:33:54;;;;;;;13.43;6.53;;;7.70;99.90;;;;;;5043800;28;20112;-71
2023/11/16 07:36:26;;;;;;;17.63;6.18;;;7.70;99.90;;;;;;5045279;28;20033;-69
2023/11/16 07:38:57;;;;;;;14.80;5.82;;;7.80;99.90;;;;;;5038689;28;20028;-70
2023/11/16 07:41:23;;;;;;;14.73;6.95;;;7.80;99.90;;;;;;5059616;28;20029;-70
2023/11/16 07:43:49;;;;;;;18.95;6.50;;;7.80;99.90;;;;;;5038777;28;20029;-69
2023/11/16 07:46:16;;;;;;;11.43;5.78;;;7.90;99.90;;;;;;5042802;28;20044;-70
2023/11/16 07:48:41;;;;;;;15.10;6.65;;;7.90;99.90;;;;;;5045879;28;20064;-69
2023/11/16 07:51:08;;;;;;;11.97;6.73;;;7.90;99.90;;;;;;5046189;28;20103;-68
2023/11/16 07:53:34;;;;;;;16.10;5.75;;;8.00;99.90;;;;;;5046320;28;20358;-69
2023/11/16 07:56:06;;;;;;;;;;;8.00;99.90;;;;;;5043077;28;20503;-70
2023/11/16 07:58:37;;;;;;;22.13;7.10;;;8.10;99.90;;;;;;5046955;28;19940;-70
2023/11/16 08:01:11;;;;;;;19.05;6.43;;;8.10;99.90;;;;;;5043399;28;20025;-73
2023/11/16 08:03:46;;;;;;;16.27;7.90;;;8.20;99.90;;;;;;5039699;28;20395;-69
2023/11/16 08:06:13;;;;;;;16.80;6.78;;;8.30;99.90;;;;;;5039168;28;20033;-70
2023/11/16 08:08:45;;;;;;;17.20;6.97;;;8.30;99.90;;;;;;5039808;28;20038;-68
2023/11/16 08:11:11;;;;;;;15.82;6.78;;;8.30;99.90;;;;;;5045575;28;20040;-70
2023/11/16 08:13:47;;;;;;;19.00;6.32;;;8.30;99.90;;;;;;5045851;28;20025;-70
2023/11/16 08:16:20;;;;;;;20.02;7.80;;;8.30;99.90;;;;;;5042480;28;20017;-70
2023/11/16 08:18:48;;;;;;;19.10;6.00;;;8.20;99.90;;;;;;5039650;28;20400;-68
2023/11/16 08:21:14;;;;;;;21.60;8.10;;;8.30;99.90;;;;;;5046007;28;20040;-67
2023/11/16 08:23:43;;;;;;;14.57;4.78;;;8.30;99.90;;;;;;5046993;28;20040;-68
2023/11/16 08:26:10;;;;;;;13.07;4.20;;;8.40;99.90;;;;;;5041865;28;20524;-67
2023/11/16 08:28:36;;;;;;;;;;;8.50;99.90;;;;;;5041617;28;20039;-69
2023/11/16 08:31:02;;;;;;;18.85;4.05;;;8.60;99.90;;;;;;5042400;28;20027;-69
2023/11/16 08:33:29;;;;;;;7.35;3.70;;;8.60;99.90;;;;;;5041877;28;20174;-70
2023/11/16 08:35:55;;;;;;;7.70;4.05;;;8.60;99.90;;;;;;5039519;28;20144;-69
2023/11/16 08:38:25;;;;;;;16.27;3.75;;;8.60;99.90;;;;;;5044272;28;20124;-69
2023/11/16 08:40:55;;;;;;;12.77;4.22;;;8.60;99.90;;;;;;5039031;28;20418;-68
2023/11/16 08:43:22;;;;;;;13.73;3.40;;;8.70;99.90;;;;;;5042741;28;20116;-70
2023/11/16 08:45:51;;;;;;;12.63;4.10;;;8.90;99.90;;;;;;5046996;28;20032;-70
2023/11/16 08:48:30;;;;;;;9.95;3.13;;;9.00;99.90;;;;;;5046724;28;20028;-71
2023/11/16 08:51:01;;;;;;;7.38;2.85;;;9.10;99.90;;;;;;5046692;28;20025;-71
2023/11/16 08:53:32;;;;;;;12.13;2.65;;;9.10;99.90;;;;;;5046730;28;20187;-68
2023/11/16 08:55:59;;;;;;;7.20;2.35;;;9.20;99.90;;;;;;5045701;28;20036;-71
2023/11/16 08:58:30;;;;;;;11.25;2.85;;;9.30;99.90;;;;;;5041737;28;20025;-73
2023/11/16 09:00:57;;;;;;;11.05;2.53;;;9.20;99.90;;;;;;5040100;28;20150;-73
2023/11/16 09:03:25;;;;;;;4.57;1.70;;;9.40;99.90;;;;;;5044376;28;20516;-69
2023/11/16 09:05:51;;;;;;;4.80;1.90;;;9.40;99.90;;;;;;5038168;28;20048;-70
2023/11/16 09:08:19;;;;;;;6.15;1.60;;;9.40;99.90;;;;;;5041466;28;20025;-72
2023/11/16 09:10:46;;;;;;;10.23;1.92;;;9.50;99.90;;;;;;5039938;28;20049;-68
2023/11/16 09:13:12;;;;;;;4.38;1.45;;;9.50;99.90;;;;;;5042912;28;20776;-69
2023/11/16 09:15:38;;;;;;;4.50;1.20;;;9.50;99.90;;;;;;5043750;28;20033;-68
2023/11/16 09:18:04;;;;;;;3.78;1.30;;;9.50;99.90;;;;;;5041070;28;20040;-67
2023/11/16 09:20:31;;;;;;;5.25;1.83;;;9.50;99.90;;;;;;5043839;28;20870;-71
2023/11/16 09:23:00;;;;;;;5.57;1.63;;;9.60;99.90;;;;;;5043540;28;20493;-70
2023/11/16 09:25:29;;;;;;;4.68;1.42;;;9.60;99.90;;;;;;5045105;28;20029;-73
2023/11/16 09:27:56;;;;;;;6.95;1.30;;;9.70;99.90;;;;;;5042324;28;20039;-69
2023/11/16 09:30:27;;;;;;;4.40;1.40;;;9.70;99.90;;;;;;5046088;28;20040;-68
2023/11/16 09:32:54;;;;;;;5.32;1.85;;;9.70;99.90;;;;;;5041132;28;20021;-70
2023/11/16 09:35:23;;;;;;;3.85;1.90;;;9.70;99.90;;;;;;5041375;28;20830;-68
2023/11/16 09:37:52;;;;;;;3.22;1.50;;;9.80;99.90;;;;;;5038629;28;20056;-69
2023/11/16 09:40:24;;;;;;;4.55;1.75;;;10.00;99.90;;;;;;5037317;28;20116;-69
2023/11/16 09:43:16;;;;;;;2.92;1.85;;;10.00;99.90;;;;;;5046172;28;20017;-72
2023/11/16 09:45:49;;;;;;;4.70;1.30;;;10.10;99.90;;;;;;5046078;28;20125;-70
2023/11/16 09:48:17;;;;;;;7.53;2.25;;;10.10;99.90;;;;;;5042539;28;20021;-68
2023/11/16 09:50:44;;;;;;;4.97;1.55;;;10.10;99.90;;;;;;5040170;28;20041;-71
2023/11/16 09:53:16;;;;;;;4.78;1.55;;;10.10;99.90;;;;;;5043862;28;20021;-71
2023/11/16 09:55:50;;;;;;;6.22;1.73;;;10.10;99.90;;;;;;5044163;28;20035;-71
2023/11/16 09:58:23;;;;;;;3.20;1.13;;;10.20;99.90;;;;;;5043431;28;20059;-71
2023/11/16 10:00:57;;;;;;;2.70;1.20;;;10.40;99.90;;;;;;5046361;28;20032;-68
2023/11/16 10:03:31;;;;;;;4.68;1.90;;;10.40;99.90;;;;;;5040202;28;20025;-68
2023/11/16 10:06:03;;;;;;;5.40;2.50;;;10.40;99.90;;;;;;5045851;28;20500;-70
2023/11/16 10:08:33;;;;;;;5.15;1.85;;;10.40;99.90;;;;;;5044836;28;20183;-71
2023/11/16 10:11:05;;;;;;;4.28;2.22;;;10.40;99.90;;;;;;5049249;28;20049;-70
2023/11/16 10:13:32;;;;;;;2.15;1.48;;;10.30;99.90;;;;;;5046250;28;20063;-72
2023/11/16 10:16:10;;;;;;;6.78;2.20;;;10.40;99.90;;;;;;5045350;28;20056;-70
2023/11/16 10:18:37;;;;;;;6.13;2.25;;;10.40;99.90;;;;;;5044852;28;20029;-69
2023/11/16 10:21:03;;;;;;;;;;;10.40;99.90;;;;;;5055673;28;20116;-67
2023/11/16 10:23:29;;;;;;;3.33;2.03;;;10.50;99.90;;;;;;5047994;28;20447;-68
2023/11/16 10:25:58;;;;;;;3.88;2.10;;;10.50;99.90;;;;;;5048214;28;20373;-69
2023/11/16 10:28:24;;;;;;;6.85;2.17;;;10.40;99.90;;;;;;5047640;28;20393;-71
2023/11/16 10:30:53;;;;;;;3.10;1.77;;;10.40;99.90;;;;;;5044659;28;20524;-68
2023/11/16 10:33:23;;;;;;;3.15;1.80;;;10.40;99.90;;;;;;5048410;28;20033;-68
2023/11/16 10:35:51;;;;;;;4.78;1.60;;;10.30;99.90;;;;;;5048711;28;20032;-68
2023/11/16 10:38:21;;;;;;;2.75;1.55;;;10.30;99.90;;;;;;5039746;28;20047;-69
2023/11/16 10:40:49;;;;;;;4.38;1.70;;;10.40;99.90;;;;;;5048221;28;20033;-68
2023/11/16 10:43:25;;;;;;;6.97;2.83;;;10.50;99.90;;;;;;5048671;28;20057;-69
2023/11/16 10:45:59;;;;;;;1.70;1.17;;;10.60;99.90;;;;;;5045684;28;20052;-68
2023/11/16 10:48:26;;;;;;;3.45;0.77;;;10.70;99.90;;;;;;5046413;28;20064;-70
2023/11/16 10:50:52;;;;;;;2.33;1.00;;;10.80;99.90;;;;;;5048124;28;20045;-70
2023/11/16 10:53:23;;;;;;;6.25;0.85;;;10.90;99.90;;;;;;5047567;28;20033;-71
2023/11/16 10:55:58;;;;;;;4.38;1.35;;;11.10;99.90;;;;;;5045025;28;20056;-68
2023/11/16 10:58:29;;;;;;;6.85;0.90;;;11.40;99.90;;;;;;5045805;28;20032;-69
2023/11/16 11:01:07;;;;;;;5.55;1.10;;;11.70;99.90;;;;;;5042679;28;20028;-68
2023/11/16 11:03:35;;;;;;;1.80;0.90;;;11.80;99.90;;;;;;5048158;28;20058;-69
2023/11/16 11:06:03;;;;;;;4.47;1.13;;;12.10;99.90;;;;;;5041228;28;20140;-71
2023/11/16 11:08:38;;;;;;;2.42;1.08;;;12.20;98.30;;;;;;5043283;28;20518;-69
2023/11/16 11:11:07;;;;;;;2.20;1.00;;;12.00;96.60;;;;;;5048390;28;20032;-68
2023/11/16 11:13:33;;;;;;;2.28;1.17;;;11.90;96.50;;;;;;5048058;28;20027;-71
2023/11/16 11:16:06;;;;;;;2.10;0.90;;;11.80;99.20;;;;;;5044150;28;20033;-72
2023/11/16 11:18:42;;;;;;;3.45;0.80;;;12.00;99.20;;;;;;5042314;28;20036;-71
2023/11/16 11:21:08;;;;;;;2.88;1.10;;;12.10;94.80;;;;;;5048676;28;20056;-70
2023/11/16 11:23:37;;;;;;;2.05;1.13;;;12.00;96.70;;;;;;5048096;28;20123;-71
2023/11/16 11:26:04;;;;;;;2.58;1.02;;;12.10;94.90;;;;;;5046458;28;20057;-70
2023/11/16 11:28:31;;;;;;;2.63;1.00;;;12.20;94.90;;;;;;5044326;28;20025;-72
2023/11/16 11:30:59;;;;;;;2.05;0.90;;;12.20;96.20;;;;;;5047199;28;20496;-70
2023/11/16 11:33:35;;;;;;;3.28;1.00;;;12.30;93.80;;;;;;5047882;28;20497;-68
2023/11/16 11:36:09;;;;;;;2.40;1.05;;;12.40;93.40;;;;;;5042206;28;20035;-69
2023/11/16 11:38:38;;;;;;;3.40;1.15;;;12.20;95.30;;;;;;5045326;28;20382;-68
2023/11/16 11:41:12;;;;;;;3.50;0.75;;;12.20;94.10;;;;;;5047656;28;20025;-71
2023/11/16 11:43:38;;;;;;;1.85;0.93;;;12.40;94.30;;;;;;5048089;28;20043;-70
2023/11/16 11:46:09;;;;;;;3.72;0.93;;;12.40;95.80;;;;;;5047012;28;20037;-69
2023/11/16 11:48:40;;;;;;;2.90;0.93;;;12.60;96.40;;;;;;5048027;28;20070;-71
2023/11/16 11:51:19;;;;;;;2.30;0.90;;;12.60;94.70;;;;;;5045102;28;20040;-71
2023/11/16 11:53:45;;;;;;;2.45;0.80;;;12.50;95.10;;;;;;5046920;28;20037;-70
2023/11/16 11:56:15;;;;;;;2.00;0.80;;;12.50;93.80;;;;;;5042228;28;20033;-69
2023/11/16 11:58:42;;;;;;;1.10;0.65;;;12.30;95.70;;;;;;5043599;28;20044;-70
2023/11/16 12:01:10;;;;;;;6.25;0.90;;;12.40;94.20;;;;;;5045413;28;20500;-70
2023/11/16 12:03:47;;;;;;;1.40;1.00;;;12.30;94.80;;;;;;5044844;28;20055;-70
2023/11/16 12:06:16;;;;;;;4.80;0.88;;;12.40;94.20;;;;;;5037719;28;20051;-70
2023/11/16 12:08:44;;;;;;;1.17;0.68;;;12.40;93.70;;;;;;5041923;28;20029;-72
2023/11/16 12:11:12;;;;;;;3.97;1.00;;;12.30;93.10;;;;;;5044222;28;20481;-71
2023/11/16 12:13:38;;;;;;;5.13;1.30;;;12.30;94.10;;;;;;5041105;28;20563;-71
2023/11/16 12:16:06;;;;;;;1.77;1.00;;;12.40;93.60;;;;;;5042917;28;20405;-70
2023/11/16 12:18:37;;;;;;;2.63;1.13;;;12.30;94.80;;;;;;5041896;28;20035;-72
2023/11/16 12:21:07;;;;;;;7.32;1.33;;;12.30;94.20;;;;;;5043146;28;20039;-72
2023/11/16 12:23:33;;;;;;;3.08;1.25;;;12.50;94.40;;;;;;5043293;28;20025;-73
2023/11/16 12:26:02;;;;;;;4.20;1.07;;;12.50;96.40;;;;;;5041684;28;20102;-71
2023/11/16 12:28:28;;;;;;;6.60;1.33;;;12.50;93.80;;;;;;5043474;28;20103;-73
2023/11/16 12:30:58;;;;;;;2.25;1.17;;;12.70;92.40;;;;;;5044449;28;20438;-71
2023/11/16 12:33:23;;;;;;;3.28;1.63;;;12.60;93.60;;;;;;5046742;28;20037;-71
2023/11/16 12:35:50;;;;;;;5.10;1.63;;;12.60;93.90;;;;;;5039131;28;20031;-70
2023/11/16 12:38:20;;;;;;;3.03;1.17;;;12.80;94.00;;;;;;5041154;28;20163;-71
2023/11/16 12:40:45;;;;;;;2.70;1.20;;;12.80;93.40;;;;;;5040925;28;20115;-70
2023/11/16 12:43:11;;;;;;;6.77;1.10;;;12.90;92.70;;;;;;5046858;28;20571;-70
2023/11/16 12:45:37;;;;;;;6.70;1.50;;;12.90;93.80;;;;;;5045196;28;20127;-71
2023/11/16 12:48:06;;;;;;;4.75;1.70;;;12.80;92.80;;;;;;5044141;28;20778;-70
2023/11/16 12:50:32;;;;;;;4.47;1.88;;;12.90;92.80;;;;;;5042504;28;20131;-72
2023/11/16 12:52:58;;;;;;;;;;;12.90;93.60;;;;;;5044693;28;20028;-70
2023/11/16 12:55:24;;;;;;;12.60;2.20;;;13.10;92.70;;;;;;5045971;28;19942;-73